Time;durP1;ratioP1;P1;durP2;ratioP2;P2;SDS_P1;SDS_P2;PMS_P1;PMS_P2;Temp;Humidity;BMP_temperature;BMP_pressure;BME280_temperature;BME280_humidity;BME280_pressure;Samples;Min_cycle;Max_cycle;Signal;HPM_P1;HPM_P2
2023/07/26 00:01:05;;;;;;;1.90;0.90;;;17.80;88.50;;;;;;5093650;28;20492;-62
2023/07/26 00:03:31;;;;;;;4.32;1.13;;;17.80;89.40;;;;;;5092964;28;20024;-62
2023/07/26 00:05:57;;;;;;;1.75;1.00;;;17.70;89.40;;;;;;5094257;28;20040;-62
2023/07/26 00:08:23;;;;;;;5.35;1.13;;;17.70;89.20;;;;;;5096667;28;20050;-62
2023/07/26 00:10:49;;;;;;;4.97;0.90;;;17.60;89.80;;;;;;5091915;28;20115;-62
2023/07/26 00:13:18;;;;;;;3.42;1.15;;;17.60;89.60;;;;;;5095833;28;20513;-62
2023/07/26 00:15:44;;;;;;;2.45;1.00;;;17.50;89.50;;;;;;5092851;28;20411;-62
2023/07/26 00:18:09;;;;;;;2.85;0.90;;;17.40;90.00;;;;;;5093553;28;20449;-62
2023/07/26 00:20:35;;;;;;;2.40;0.88;;;17.40;90.10;;;;;;5089197;28;20066;-62
2023/07/26 00:23:02;;;;;;;8.60;1.33;;;17.30;90.40;;;;;;5093328;28;20529;-62
2023/07/26 00:25:28;;;;;;;1.58;0.80;;;17.20;90.40;;;;;;5087434;28;20046;-62
2023/07/26 00:27:54;;;;;;;5.20;1.17;;;17.10;90.70;;;;;;5093397;28;20044;-62
2023/07/26 00:30:21;;;;;;;2.78;0.90;;;17.10;91.20;;;;;;5076976;28;20055;-62
2023/07/26 00:32:48;;;;;;;2.25;0.77;;;17.00;91.20;;;;;;5093286;28;20040;-62
2023/07/26 00:35:24;;;;;;;2.83;0.70;;;16.90;91.20;;;;;;5091684;28;20095;-62
2023/07/26 00:37:50;;;;;;;6.35;0.88;;;16.90;91.30;;;;;;5092365;28;20482;-62
2023/07/26 00:40:17;;;;;;;3.95;0.88;;;16.80;91.70;;;;;;5095004;28;20038;-62
2023/07/26 00:42:43;;;;;;;3.92;1.05;;;16.80;91.80;;;;;;5091988;28;20032;-62
2023/07/26 00:45:09;;;;;;;4.72;1.10;;;16.80;92.00;;;;;;5076879;28;20031;-62
2023/07/26 00:47:36;;;;;;;1.85;0.90;;;16.80;92.00;;;;;;5092971;28;20043;-62
2023/07/26 00:50:02;;;;;;;3.53;0.88;;;16.80;91.80;;;;;;5076425;28;20550;-62
2023/07/26 00:52:28;;;;;;;2.28;0.73;;;16.80;92.00;;;;;;5092113;28;20507;-62
2023/07/26 00:54:55;;;;;;;1.35;0.77;;;16.70;92.10;;;;;;5074283;28;20028;-62
2023/07/26 00:57:21;;;;;;;1.80;0.90;;;16.70;92.00;;;;;;5077516;28;20032;-62
2023/07/26 00:59:47;;;;;;;1.25;0.85;;;16.60;92.00;;;;;;5074153;28;20063;-62
2023/07/26 01:02:14;;;;;;;6.70;1.20;;;16.50;92.00;;;;;;5076987;28;20104;-62
2023/07/26 01:04:40;;;;;;;3.78;1.13;;;16.50;92.20;;;;;;5092448;28;20031;-61
2023/07/26 01:07:31;;;;;;;2.05;0.95;;;16.40;92.60;;;;;;5095819;28;20034;-61
2023/07/26 01:10:18;;;;;;;4.28;0.90;;;16.30;92.80;;;;;;5091417;28;20044;-62
2023/07/26 01:12:49;;;;;;;1.95;1.13;;;16.20;93.10;;;;;;5090337;28;20044;-61
2023/07/26 01:15:16;;;;;;;3.95;1.20;;;16.20;93.30;;;;;;5095172;28;20107;-61
2023/07/26 01:17:44;;;;;;;3.53;1.05;;;16.10;93.40;;;;;;5089925;28;20087;-62
2023/07/26 01:20:12;;;;;;;2.33;1.08;;;16.00;93.70;;;;;;5095154;28;20024;-62
2023/07/26 01:22:37;;;;;;;2.28;1.20;;;16.00;93.90;;;;;;5092353;28;20039;-62
2023/07/26 01:25:03;;;;;;;2.95;1.35;;;15.90;94.00;;;;;;5076602;28;20028;-62
2023/07/26 01:27:29;;;;;;;2.65;1.30;;;15.90;94.20;;;;;;5091983;28;20031;-61
2023/07/26 01:29:56;;;;;;;3.88;1.13;;;15.90;94.40;;;;;;5092521;28;20028;-62
2023/07/26 01:32:25;;;;;;;1.63;0.93;;;15.80;94.60;;;;;;5076308;28;20100;-61
2023/07/26 01:34:51;;;;;;;6.13;1.25;;;15.70;94.70;;;;;;5073705;28;20042;-61
2023/07/26 01:37:20;;;;;;;2.13;0.90;;;15.70;94.80;;;;;;5077363;28;20048;-61
2023/07/26 01:39:47;;;;;;;1.33;0.90;;;15.60;94.90;;;;;;5089767;28;20032;-62
2023/07/26 01:42:14;;;;;;;2.13;1.10;;;15.70;94.90;;;;;;5071579;28;20035;-62
2023/07/26 01:44:40;;;;;;;2.42;0.95;;;15.60;95.10;;;;;;5076710;28;20041;-62
2023/07/26 01:47:06;;;;;;;1.90;1.10;;;15.60;95.20;;;;;;5092257;28;20036;-61
2023/07/26 01:49:32;;;;;;;1.83;0.98;;;15.50;95.40;;;;;;5074837;28;20041;-61
2023/07/26 01:51:58;;;;;;;2.22;1.00;;;15.50;95.60;;;;;;5088208;28;20028;-62
2023/07/26 01:54:24;;;;;;;5.90;1.05;;;15.50;95.60;;;;;;5097474;28;20049;-62
2023/07/26 01:56:50;;;;;;;3.88;1.10;;;15.40;95.60;;;;;;5078093;28;20028;-62
2023/07/26 01:59:16;;;;;;;4.60;1.40;;;15.50;95.80;;;;;;5080618;28;20035;-62
2023/07/26 02:01:42;;;;;;;3.17;0.88;;;15.40;95.90;;;;;;5076628;28;20125;-62
2023/07/26 02:04:07;;;;;;;2.80;1.25;;;15.40;95.90;;;;;;5077132;28;20512;-61
2023/07/26 02:06:33;;;;;;;5.00;1.15;;;15.50;95.90;;;;;;5080427;28;20039;-61
2023/07/26 02:08:59;;;;;;;3.15;1.08;;;15.50;95.80;;;;;;5077023;28;20028;-62
2023/07/26 02:11:25;;;;;;;1.45;0.93;;;15.50;95.70;;;;;;5079972;28;20127;-62
2023/07/26 02:13:54;;;;;;;3.47;1.33;;;15.50;95.70;;;;;;5077431;28;20028;-62
2023/07/26 02:16:20;;;;;;;2.78;1.10;;;15.40;95.80;;;;;;5097736;28;20398;-62
2023/07/26 02:18:46;;;;;;;2.45;1.15;;;15.40;95.70;;;;;;5095986;28;20035;-62
2023/07/26 02:21:12;;;;;;;3.25;1.15;;;15.40;95.80;;;;;;5076576;28;20077;-62
2023/07/26 02:23:38;;;;;;;1.63;1.00;;;15.40;95.90;;;;;;5076003;28;20032;-61
2023/07/26 02:26:04;;;;;;;2.35;1.15;;;15.30;96.10;;;;;;5075151;28;20405;-62
2023/07/26 02:28:30;;;;;;;1.75;1.17;;;15.40;96.30;;;;;;5079065;28;20035;-62
2023/07/26 02:30:56;;;;;;;3.42;1.00;;;15.30;96.30;;;;;;5077185;28;20184;-62
2023/07/26 02:33:22;;;;;;;1.92;1.25;;;15.20;96.50;;;;;;5078983;28;20583;-62
2023/07/26 02:35:48;;;;;;;2.40;1.20;;;15.20;96.60;;;;;;5077702;28;20067;-62
2023/07/26 02:38:14;;;;;;;2.80;1.48;;;15.20;96.60;;;;;;5093382;28;20032;-62
2023/07/26 02:40:40;;;;;;;3.90;1.10;;;15.10;96.80;;;;;;5094896;28;20057;-62
2023/07/26 02:43:05;;;;;;;1.70;0.98;;;15.10;96.90;;;;;;5076932;28;20032;-62
2023/07/26 02:45:33;;;;;;;6.20;1.35;;;15.10;97.00;;;;;;5077049;28;20031;-62
2023/07/26 02:47:58;;;;;;;7.57;1.83;;;15.10;97.20;;;;;;5078107;28;20038;-62
2023/07/26 02:50:24;;;;;;;4.20;1.35;;;15.10;97.30;;;;;;5098372;28;20376;-62
2023/07/26 02:52:50;;;;;;;3.05;1.10;;;15.00;97.40;;;;;;5094683;28;20114;-62
2023/07/26 02:55:16;;;;;;;6.82;1.27;;;15.00;97.50;;;;;;5097343;28;20459;-62
2023/07/26 02:57:41;;;;;;;3.80;1.25;;;15.00;97.50;;;;;;5094798;28;20027;-62
2023/07/26 03:00:08;;;;;;;3.55;1.05;;;15.00;97.60;;;;;;5076630;28;20016;-62
2023/07/26 03:02:34;;;;;;;3.50;1.33;;;14.90;97.70;;;;;;5096458;28;20067;-61
2023/07/26 03:04:59;;;;;;;2.75;1.27;;;14.90;97.80;;;;;;5075991;28;20403;-61
2023/07/26 03:07:25;;;;;;;3.03;1.20;;;14.90;97.90;;;;;;5078084;28;20510;-61
2023/07/26 03:09:51;;;;;;;4.20;1.10;;;14.90;98.00;;;;;;5095529;28;20444;-62
2023/07/26 03:12:17;;;;;;;3.63;1.35;;;14.90;98.20;;;;;;5078019;28;20152;-62
2023/07/26 03:14:43;;;;;;;3.83;1.27;;;14.80;98.40;;;;;;5093637;28;20058;-62
2023/07/26 03:17:09;;;;;;;3.45;1.48;;;14.80;98.50;;;;;;5095591;28;20024;-61
2023/07/26 03:19:35;;;;;;;4.32;1.33;;;14.90;98.60;;;;;;5091601;28;20116;-61
2023/07/26 03:22:01;;;;;;;2.33;1.20;;;14.80;98.50;;;;;;5075658;28;20059;-62
2023/07/26 03:24:27;;;;;;;3.60;1.45;;;14.80;98.70;;;;;;5094577;28;20035;-61
2023/07/26 03:26:53;;;;;;;3.75;1.40;;;14.80;98.80;;;;;;5091286;28;20146;-62
2023/07/26 03:29:20;;;;;;;3.17;1.45;;;14.80;98.90;;;;;;5075768;28;20425;-61
2023/07/26 03:31:46;;;;;;;2.30;1.23;;;14.80;99.10;;;;;;5093738;28;20042;-62
2023/07/26 03:34:12;;;;;;;4.32;1.48;;;14.80;99.20;;;;;;5094808;28;20032;-62
2023/07/26 03:36:38;;;;;;;3.03;1.20;;;14.80;99.20;;;;;;5077421;28;20028;-61
2023/07/26 03:39:03;;;;;;;2.97;1.23;;;14.80;99.20;;;;;;5076347;28;20055;-62
2023/07/26 03:41:29;;;;;;;3.28;1.30;;;14.90;99.30;;;;;;5077366;28;20028;-62
2023/07/26 03:43:55;;;;;;;4.53;1.27;;;14.90;99.30;;;;;;5094217;28;20338;-62
2023/07/26 03:46:21;;;;;;;6.47;1.73;;;14.90;99.30;;;;;;5093342;28;20043;-62
2023/07/26 03:48:47;;;;;;;6.45;1.20;;;14.90;99.40;;;;;;5078823;28;20024;-62
2023/07/26 03:51:12;;;;;;;7.68;1.58;;;14.90;99.30;;;;;;5094819;28;20028;-62
2023/07/26 03:53:38;;;;;;;5.25;1.52;;;15.00;99.30;;;;;;5073058;28;20526;-61
2023/07/26 03:56:04;;;;;;;4.88;1.23;;;15.00;99.40;;;;;;5094779;28;20456;-62
2023/07/26 03:58:30;;;;;;;6.15;1.38;;;15.10;99.20;;;;;;5096051;28;20566;-62
2023/07/26 04:00:56;;;;;;;4.93;1.45;;;15.10;99.10;;;;;;5090354;28;20050;-62
2023/07/26 04:03:21;;;;;;;4.70;1.20;;;15.10;99.20;;;;;;5092967;28;20039;-62
2023/07/26 04:05:47;;;;;;;3.28;1.38;;;15.20;99.20;;;;;;5078022;28;20032;-61
2023/07/26 04:08:13;;;;;;;2.47;1.20;;;15.20;99.20;;;;;;5092798;28;20035;-62
2023/07/26 04:10:39;;;;;;;4.47;1.58;;;15.30;99.20;;;;;;5095352;28;20509;-62
2023/07/26 04:13:04;;;;;;;3.10;1.58;;;15.40;99.10;;;;;;5093761;28;20547;-62
2023/07/26 04:15:30;;;;;;;3.40;1.25;;;15.40;99.10;;;;;;5076822;28;20546;-61
2023/07/26 04:17:56;;;;;;;2.30;1.40;;;15.40;99.00;;;;;;5094017;28;20107;-62
2023/07/26 04:20:22;;;;;;;2.28;1.60;;;15.50;99.00;;;;;;5095500;28;20484;-62
2023/07/26 04:22:48;;;;;;;5.30;1.48;;;15.50;98.90;;;;;;5093204;28;20043;-61
2023/07/26 04:25:15;;;;;;;4.07;1.50;;;15.60;98.80;;;;;;5091285;28;20066;-61
2023/07/26 04:27:41;;;;;;;6.43;1.20;;;15.60;98.80;;;;;;5094908;28;20043;-62
2023/07/26 04:30:07;;;;;;;5.80;1.40;;;15.60;98.70;;;;;;5093992;28;20039;-62
2023/07/26 04:32:33;;;;;;;7.38;1.63;;;15.60;98.70;;;;;;5094702;28;20039;-61
2023/07/26 04:34:59;;;;;;;2.22;1.25;;;15.70;98.70;;;;;;5094131;28;20028;-62
2023/07/26 04:37:25;;;;;;;2.85;1.10;;;15.70;98.70;;;;;;5091989;28;20716;-62
2023/07/26 04:39:50;;;;;;;4.18;1.58;;;15.70;98.60;;;;;;5076046;28;20808;-62
2023/07/26 04:42:17;;;;;;;4.78;1.50;;;15.70;98.60;;;;;;5092559;28;20043;-62
2023/07/26 04:44:43;;;;;;;4.85;1.75;;;15.70;98.60;;;;;;5090356;28;20042;-62
2023/07/26 04:47:09;;;;;;;3.13;1.50;;;15.80;98.60;;;;;;5094186;28;20132;-62
2023/07/26 04:49:35;;;;;;;5.15;1.67;;;15.80;98.60;;;;;;5094031;28;20086;-62
2023/07/26 04:52:01;;;;;;;2.80;1.23;;;15.80;98.60;;;;;;5093506;28;20513;-62
2023/07/26 04:54:26;;;;;;;4.13;1.50;;;15.90;98.60;;;;;;5094151;28;20039;-62
2023/07/26 04:56:52;;;;;;;5.50;1.92;;;15.90;98.40;;;;;;5093234;28;20036;-61
2023/07/26 04:59:18;;;;;;;5.28;1.48;;;15.90;98.40;;;;;;5094582;28;20061;-62
2023/07/26 05:01:44;;;;;;;5.95;1.50;;;16.00;98.50;;;;;;5092432;28;20028;-62
2023/07/26 05:04:09;;;;;;;3.95;1.50;;;16.00;98.40;;;;;;5093387;28;20044;-62
2023/07/26 05:06:36;;;;;;;5.57;1.50;;;16.00;98.60;;;;;;5094443;28;20039;-62
2023/07/26 05:09:04;;;;;;;4.60;1.60;;;16.00;98.40;;;;;;5092705;28;20769;-61
2023/07/26 05:11:31;;;;;;;4.13;1.60;;;16.00;98.40;;;;;;5093987;28;20059;-62
2023/07/26 05:13:56;;;;;;;2.58;1.23;;;16.10;98.30;;;;;;5093070;28;20040;-61
2023/07/26 05:16:22;;;;;;;4.07;1.60;;;16.20;98.30;;;;;;5094308;28;20043;-62
2023/07/26 05:18:48;;;;;;;4.72;1.70;;;16.20;98.30;;;;;;5092563;28;20031;-61
2023/07/26 05:21:14;;;;;;;2.38;1.05;;;16.30;98.20;;;;;;5093938;28;20587;-62
2023/07/26 05:23:39;;;;;;;2.55;1.70;;;16.30;98.30;;;;;;5093863;28;20407;-63
2023/07/26 05:26:05;;;;;;;4.78;1.63;;;16.30;98.20;;;;;;5093985;28;20681;-62
2023/07/26 05:28:31;;;;;;;4.63;1.50;;;16.30;98.20;;;;;;5095270;28;20028;-62
2023/07/26 05:30:57;;;;;;;5.35;1.60;;;16.40;98.30;;;;;;5097991;28;20160;-62
2023/07/26 05:33:23;;;;;;;2.05;1.35;;;16.50;98.30;;;;;;5097783;28;20031;-62
2023/07/26 05:35:48;;;;;;;6.85;1.73;;;16.60;98.10;;;;;;5095504;28;20042;-61
2023/07/26 05:38:14;;;;;;;5.72;1.90;;;16.60;98.00;;;;;;5097636;28;20028;-62
2023/07/26 05:40:40;;;;;;;7.88;2.13;;;16.70;97.50;;;;;;5097846;28;20024;-62
2023/07/26 05:43:06;;;;;;;4.32;1.67;;;16.80;97.40;;;;;;5096986;28;20106;-61
2023/07/26 05:45:32;;;;;;;4.63;1.45;;;16.90;97.40;;;;;;5097855;28;20760;-62
2023/07/26 05:47:57;;;;;;;7.80;1.98;;;17.00;97.40;;;;;;5097842;28;20071;-62
2023/07/26 05:50:23;;;;;;;4.28;1.63;;;17.00;97.10;;;;;;5098201;28;20047;-62
2023/07/26 05:52:49;;;;;;;6.07;1.65;;;17.10;97.10;;;;;;5096961;28;20043;-62
2023/07/26 05:55:15;;;;;;;3.35;1.42;;;17.20;97.10;;;;;;5093620;28;20123;-62
2023/07/26 05:57:41;;;;;;;3.60;1.27;;;17.30;96.90;;;;;;5097364;28;20027;-62
2023/07/26 06:00:07;;;;;;;2.78;1.25;;;17.30;96.70;;;;;;5097290;28;20035;-61
2023/07/26 06:02:37;;;;;;;4.53;1.23;;;17.40;96.90;;;;;;5096827;28;20046;-62
2023/07/26 06:05:05;;;;;;;3.58;1.35;;;17.50;96.60;;;;;;5097536;28;20812;-62
2023/07/26 06:07:31;;;;;;;4.60;1.05;;;17.50;96.40;;;;;;5096662;28;20043;-62
2023/07/26 06:09:57;;;;;;;4.05;1.20;;;17.60;96.50;;;;;;5098235;28;20077;-62
2023/07/26 06:12:23;;;;;;;4.63;1.55;;;17.60;96.10;;;;;;5094597;28;20102;-62
2023/07/26 06:14:48;;;;;;;3.80;1.48;;;17.70;96.20;;;;;;5096616;28;20032;-62
2023/07/26 06:17:14;;;;;;;5.53;1.33;;;17.80;96.10;;;;;;5098153;28;20032;-62
2023/07/26 06:19:40;;;;;;;3.78;1.35;;;17.80;95.70;;;;;;5096050;28;20059;-62
2023/07/26 06:22:06;;;;;;;1.48;1.08;;;17.80;95.70;;;;;;5097470;28;20115;-62
2023/07/26 06:24:32;;;;;;;3.80;1.27;;;17.80;95.80;;;;;;5095354;28;20031;-62
2023/07/26 06:26:58;;;;;;;3.65;1.10;;;17.80;95.80;;;;;;5097105;28;20061;-62
2023/07/26 06:29:24;;;;;;;1.42;0.90;;;17.80;95.50;;;;;;5091703;28;20024;-61
2023/07/26 06:31:49;;;;;;;3.00;1.33;;;17.90;95.90;;;;;;5094916;28;20554;-62
2023/07/26 06:34:16;;;;;;;3.97;1.25;;;17.90;95.50;;;;;;5095180;28;20052;-61
2023/07/26 06:36:41;;;;;;;4.75;1.17;;;17.90;95.70;;;;;;5095641;28;20035;-62
2023/07/26 06:39:07;;;;;;;2.80;0.82;;;17.90;95.50;;;;;;5097416;28;20032;-61
2023/07/26 06:41:33;;;;;;;5.57;1.23;;;17.90;95.60;;;;;;5096199;28;20035;-61
2023/07/26 06:43:58;;;;;;;4.28;1.27;;;18.00;95.80;;;;;;5096874;28;20085;-62
2023/07/26 06:46:24;;;;;;;5.15;1.70;;;18.10;95.70;;;;;;5094897;28;20403;-62
2023/07/26 06:48:50;;;;;;;3.53;1.27;;;18.10;95.00;;;;;;5093392;28;20032;-62
2023/07/26 06:51:16;;;;;;;2.60;0.90;;;18.10;95.20;;;;;;5090471;28;20574;-62
2023/07/26 06:53:41;;;;;;;4.50;1.25;;;18.10;95.00;;;;;;5094332;28;20057;-62
2023/07/26 06:56:07;;;;;;;4.40;1.20;;;18.20;95.10;;;;;;5096890;28;20074;-62
2023/07/26 06:58:33;;;;;;;3.15;0.95;;;18.30;95.20;;;;;;5095954;28;20088;-62
2023/07/26 07:00:59;;;;;;;4.82;1.10;;;18.40;94.80;;;;;;5096799;28;20028;-61
2023/07/26 07:03:25;;;;;;;2.00;0.93;;;18.60;94.50;;;;;;5096199;28;20065;-62
2023/07/26 07:05:51;;;;;;;3.00;1.20;;;18.70;94.30;;;;;;5093903;28;20040;-62
2023/07/26 07:08:16;;;;;;;4.18;1.23;;;18.80;94.20;;;;;;5096686;28;20071;-62
2023/07/26 07:10:42;;;;;;;4.28;1.30;;;18.80;93.90;;;;;;5093473;28;20035;-62
2023/07/26 07:13:08;;;;;;;4.18;1.13;;;19.00;93.90;;;;;;5096206;28;20026;-62
2023/07/26 07:15:34;;;;;;;3.50;1.02;;;19.10;93.70;;;;;;5095963;28;20459;-62
2023/07/26 07:17:59;;;;;;;4.63;1.33;;;19.20;93.50;;;;;;5096318;28;20039;-62
2023/07/26 07:20:25;;;;;;;3.38;0.98;;;19.30;93.30;;;;;;5095260;28;20035;-62
2023/07/26 07:22:54;;;;;;;3.70;1.23;;;19.40;92.90;;;;;;5092293;28;20027;-62
2023/07/26 07:25:20;;;;;;;2.58;1.00;;;19.50;93.10;;;;;;5093981;28;20042;-62
2023/07/26 07:27:45;;;;;;;2.60;1.20;;;19.50;92.70;;;;;;5094697;28;20660;-62
2023/07/26 07:30:13;;;;;;;1.67;0.90;;;19.50;92.80;;;;;;5093078;28;20044;-62
2023/07/26 07:32:39;;;;;;;1.85;0.80;;;19.50;92.50;;;;;;5077160;28;20032;-62
2023/07/26 07:35:06;;;;;;;1.95;1.02;;;19.50;91.90;;;;;;5096052;28;20470;-61
2023/07/26 07:37:32;;;;;;;2.70;1.13;;;19.40;92.20;;;;;;5094188;28;20031;-62
2023/07/26 07:39:57;;;;;;;2.50;1.08;;;19.40;92.40;;;;;;5093610;28;20036;-62
2023/07/26 07:42:23;;;;;;;8.88;1.75;;;19.40;92.40;;;;;;5095742;28;20104;-62
2023/07/26 07:44:49;;;;;;;1.50;0.93;;;19.40;92.60;;;;;;5094019;28;20044;-62
2023/07/26 07:47:15;;;;;;;2.42;1.20;;;19.40;92.70;;;;;;5096177;28;20096;-62
2023/07/26 07:49:41;;;;;;;6.28;1.60;;;19.40;92.80;;;;;;5094139;28;20293;-62
2023/07/26 07:52:07;;;;;;;4.30;1.40;;;19.50;92.40;;;;;;5095456;28;20126;-62
2023/07/26 07:54:33;;;;;;;3.67;1.05;;;19.50;92.00;;;;;;5094332;28;20551;-62
2023/07/26 07:56:58;;;;;;;1.38;0.95;;;19.50;92.20;;;;;;5092889;28;20024;-62
2023/07/26 07:59:24;;;;;;;3.30;1.10;;;19.60;92.40;;;;;;5092721;28;20368;-62
2023/07/26 08:01:50;;;;;;;4.05;2.03;;;19.70;91.90;;;;;;5093959;28;20054;-62
2023/07/26 08:04:16;;;;;;;9.10;1.38;;;19.70;91.90;;;;;;5095831;28;20550;-62
2023/07/26 08:06:42;;;;;;;5.10;1.20;;;19.70;91.40;;;;;;5094044;28;20028;-62
2023/07/26 08:09:08;;;;;;;8.05;1.17;;;19.80;91.60;;;;;;5096007;28;20507;-62
2023/07/26 08:11:34;;;;;;;3.03;1.40;;;19.80;91.50;;;;;;5093776;28;20791;-63
2023/07/26 08:14:00;;;;;;;5.40;1.35;;;19.80;91.90;;;;;;5095836;28;20118;-62
2023/07/26 08:16:27;;;;;;;2.42;1.10;;;19.90;91.10;;;;;;5093016;28;20036;-62
2023/07/26 08:18:53;;;;;;;5.57;1.40;;;20.00;91.20;;;;;;5093301;28;20028;-62
2023/07/26 08:21:18;;;;;;;3.15;1.10;;;20.00;91.60;;;;;;5096153;28;20390;-63
2023/07/26 08:23:44;;;;;;;2.38;1.10;;;20.10;91.50;;;;;;5093123;28;20561;-62
2023/07/26 08:26:10;;;;;;;6.70;1.85;;;20.30;90.90;;;;;;5095546;28;20403;-62
2023/07/26 08:28:36;;;;;;;5.78;1.20;;;20.40;89.50;;;;;;5091224;28;20130;-62
2023/07/26 08:31:02;;;;;;;5.28;1.70;;;20.10;89.90;;;;;;5085596;28;20031;-62
2023/07/26 08:33:28;;;;;;;2.88;1.40;;;20.10;90.70;;;;;;5083078;28;20093;-62
2023/07/26 08:35:55;;;;;;;3.97;1.25;;;20.30;90.50;;;;;;5084868;28;20118;-62
2023/07/26 08:38:22;;;;;;;6.22;1.05;;;20.40;90.00;;;;;;5090353;28;20031;-62
2023/07/26 08:40:49;;;;;;;2.95;1.20;;;20.60;89.70;;;;;;5092586;28;20130;-62
2023/07/26 08:43:18;;;;;;;4.25;1.50;;;20.70;88.70;;;;;;5094430;28;20031;-62
2023/07/26 08:45:45;;;;;;;2.63;1.25;;;20.70;88.20;;;;;;5090175;28;20133;-62
2023/07/26 08:48:11;;;;;;;4.28;1.50;;;20.60;88.20;;;;;;5095457;28;20466;-63
2023/07/26 08:50:41;;;;;;;3.95;0.95;;;20.60;88.70;;;;;;5096027;28;20031;-64
2023/07/26 08:53:07;;;;;;;3.38;1.48;;;20.70;88.70;;;;;;5089700;28;20119;-63
2023/07/26 08:55:34;;;;;;;3.97;1.60;;;20.80;87.60;;;;;;5092721;28;20487;-63
2023/07/26 08:58:00;;;;;;;3.85;1.58;;;20.70;87.60;;;;;;5093080;28;20039;-63
2023/07/26 09:00:28;;;;;;;4.05;1.45;;;20.80;88.40;;;;;;5095225;28;20055;-62
2023/07/26 09:02:59;;;;;;;3.40;1.15;;;20.80;87.70;;;;;;5092859;28;20630;-63
2023/07/26 09:05:25;;;;;;;2.42;1.00;;;20.80;86.60;;;;;;5098506;28;20063;-62
2023/07/26 09:07:51;;;;;;;2.13;1.08;;;20.80;86.90;;;;;;5096245;28;20040;-62
2023/07/26 09:10:25;;;;;;;3.63;1.00;;;20.70;88.00;;;;;;5098288;28;20036;-62
2023/07/26 09:12:51;;;;;;;4.38;1.15;;;20.80;87.20;;;;;;5078283;28;20063;-62
2023/07/26 09:15:18;;;;;;;1.83;1.20;;;20.80;85.20;;;;;;5099825;28;20526;-62
2023/07/26 09:17:45;;;;;;;2.85;1.10;;;20.90;85.10;;;;;;5096470;28;20085;-62
2023/07/26 09:20:26;;;;;;;1.85;0.98;;;21.00;85.10;;;;;;5081512;28;20027;-62
2023/07/26 09:23:12;;;;;;;3.15;1.10;;;21.00;84.60;;;;;;5096074;28;20039;-62
2023/07/26 09:25:40;;;;;;;;;;;21.10;84.70;;;;;;5093364;28;20500;-62
2023/07/26 09:28:13;;;;;;;2.00;1.17;;;21.20;83.40;;;;;;5096652;28;19918;-62
2023/07/26 09:30:45;;;;;;;2.08;1.17;;;21.30;84.40;;;;;;5098238;28;20036;-62
2023/07/26 09:33:12;;;;;;;1.45;0.95;;;21.30;82.50;;;;;;5097966;28;20032;-62
2023/07/26 09:35:49;;;;;;;3.05;1.15;;;21.40;83.20;;;;;;5099909;28;20028;-61
2023/07/26 09:38:23;;;;;;;2.78;1.20;;;21.30;81.20;;;;;;5094946;28;20106;-63
2023/07/26 09:40:49;;;;;;;2.63;1.15;;;21.30;83.00;;;;;;5095745;28;20036;-62
2023/07/26 09:43:41;;;;;;;3.10;1.15;;;21.30;82.70;;;;;;5095627;28;20046;-62
2023/07/26 09:46:07;;;;;;;3.33;1.15;;;21.40;82.50;;;;;;5088331;28;20380;-61
2023/07/26 09:48:33;;;;;;;3.20;0.93;;;21.50;82.50;;;;;;5096343;28;20043;-62
2023/07/26 09:51:03;;;;;;;3.85;1.27;;;21.40;81.80;;;;;;5096821;28;20054;-62
2023/07/26 09:53:32;;;;;;;3.10;1.05;;;21.50;80.10;;;;;;5097995;28;20459;-62
2023/07/26 09:55:58;;;;;;;1.83;1.00;;;21.60;79.70;;;;;;5094913;28;20401;-62
2023/07/26 09:58:25;;;;;;;1.17;0.90;;;21.50;80.00;;;;;;5097460;28;20031;-62
2023/07/26 10:00:55;;;;;;;2.22;1.17;;;21.50;80.30;;;;;;5096977;28;20050;-62
2023/07/26 10:03:21;;;;;;;3.35;1.23;;;21.80;80.40;;;;;;5097585;28;20024;-62
2023/07/26 10:05:50;;;;;;;2.88;1.30;;;21.90;77.90;;;;;;5097278;28;20031;-62
2023/07/26 10:08:18;;;;;;;1.95;0.90;;;22.00;77.40;;;;;;5098363;28;20489;-62
2023/07/26 10:10:46;;;;;;;2.85;1.17;;;21.90;76.00;;;;;;5095764;28;20070;-62
2023/07/26 10:13:15;;;;;;;2.17;1.20;;;21.80;76.50;;;;;;5101474;28;20028;-62
2023/07/26 10:15:46;;;;;;;1.55;1.10;;;21.70;77.20;;;;;;5091912;28;20032;-62
2023/07/26 10:18:15;;;;;;;1.88;1.13;;;21.70;76.80;;;;;;5095182;28;20085;-62
2023/07/26 10:20:43;;;;;;;1.98;1.10;;;21.80;78.00;;;;;;5095045;28;20114;-62
2023/07/26 10:23:11;;;;;;;2.22;1.10;;;22.00;78.40;;;;;;5096175;28;20036;-62
2023/07/26 10:25:38;;;;;;;2.65;1.40;;;22.10;78.90;;;;;;5096942;28;20411;-62
2023/07/26 10:28:04;;;;;;;4.05;1.90;;;22.10;80.90;;;;;;5094805;28;20031;-62
2023/07/26 10:30:31;;;;;;;2.03;1.33;;;21.80;84.80;;;;;;5096706;28;20077;-62
2023/07/26 10:33:00;;;;;;;1.67;1.00;;;21.60;87.60;;;;;;5096091;28;20031;-62
2023/07/26 10:35:30;;;;;;;2.05;1.17;;;21.30;88.30;;;;;;5096429;28;20088;-62
2023/07/26 10:38:01;;;;;;;3.70;1.20;;;21.20;90.10;;;;;;5089041;28;20036;-62
2023/07/26 10:40:40;;;;;;;2.15;1.13;;;21.00;90.10;;;;;;5093783;28;20028;-62
2023/07/26 10:43:20;;;;;;;1.60;1.00;;;20.90;89.20;;;;;;5093330;28;20114;-62
2023/07/26 10:45:48;;;;;;;1.70;1.10;;;20.80;88.80;;;;;;5094822;28;20036;-62
2023/07/26 10:48:29;;;;;;;3.35;1.10;;;20.80;87.40;;;;;;5096657;28;20513;-62
2023/07/26 10:50:59;;;;;;;1.42;1.08;;;20.70;88.70;;;;;;5095737;28;20024;-63
2023/07/26 10:53:36;;;;;;;4.35;1.45;;;20.70;89.70;;;;;;5095822;28;20403;-62
2023/07/26 10:56:30;;;;;;;4.18;1.40;;;20.90;89.30;;;;;;5094854;28;20024;-62
2023/07/26 10:59:04;;;;;;;1.90;1.33;;;21.10;85.00;;;;;;5094724;28;20154;-62
2023/07/26 11:01:44;;;;;;;2.88;1.27;;;21.30;82.80;;;;;;5091764;28;20115;-63
2023/07/26 11:04:22;;;;;;;3.80;1.40;;;21.40;83.50;;;;;;5095860;28;20075;-62
2023/07/26 11:07:01;;;;;;;2.35;1.30;;;21.30;82.50;;;;;;5092934;28;20040;-62
2023/07/26 11:09:29;;;;;;;2.35;1.02;;;21.20;84.40;;;;;;5095202;28;20065;-62
2023/07/26 11:12:00;;;;;;;2.25;1.02;;;21.30;83.80;;;;;;5093896;28;20039;-62
2023/07/26 11:14:32;;;;;;;1.30;1.05;;;21.30;82.80;;;;;;5094654;28;20039;-63
2023/07/26 11:17:02;;;;;;;1.02;0.85;;;21.40;82.70;;;;;;5093081;28;20028;-62
2023/07/26 11:19:29;;;;;;;2.13;1.10;;;21.50;80.80;;;;;;5092194;28;20114;-62
2023/07/26 11:22:05;;;;;;;2.05;1.00;;;21.40;78.90;;;;;;5094219;28;20032;-62
2023/07/26 11:24:31;;;;;;;2.20;0.93;;;21.50;80.10;;;;;;5095109;28;20030;-62
2023/07/26 11:27:03;;;;;;;2.17;1.08;;;21.60;82.40;;;;;;5095333;28;20682;-62
2023/07/26 11:29:29;;;;;;;3.42;1.40;;;21.60;83.20;;;;;;5094760;28;20713;-62
2023/07/26 11:31:55;;;;;;;4.30;1.40;;;21.70;82.80;;;;;;5093457;28;20059;-63
2023/07/26 11:34:21;;;;;;;2.03;0.98;;;21.90;82.10;;;;;;5096862;28;20031;-62
2023/07/26 11:36:46;;;;;;;5.45;1.40;;;21.80;80.50;;;;;;5095064;28;20032;-62
2023/07/26 11:39:21;;;;;;;3.10;1.15;;;21.80;78.60;;;;;;5096369;28;20478;-62
2023/07/26 11:41:48;;;;;;;1.35;0.80;;;22.00;76.60;;;;;;5091577;28;20459;-62
2023/07/26 11:44:15;;;;;;;5.05;0.98;;;22.10;74.90;;;;;;5096626;28;20138;-62
2023/07/26 11:46:43;;;;;;;2.25;0.90;;;22.20;74.80;;;;;;5093661;28;20039;-62
2023/07/26 11:49:19;;;;;;;1.48;0.75;;;22.30;74.90;;;;;;5091004;28;20028;-62
2023/07/26 11:51:45;;;;;;;3.00;0.95;;;22.40;74.60;;;;;;5094903;28;20051;-62
2023/07/26 11:54:11;;;;;;;1.73;1.00;;;22.50;73.50;;;;;;5094448;28;20039;-63
2023/07/26 11:56:37;;;;;;;1.98;0.90;;;22.60;71.90;;;;;;5095060;28;20032;-62
2023/07/26 11:59:04;;;;;;;1.70;0.95;;;22.40;71.60;;;;;;5095626;28;20766;-62
2023/07/26 12:01:31;;;;;;;1.42;0.93;;;22.30;73.70;;;;;;5093944;28;20042;-62
2023/07/26 12:03:57;;;;;;;3.17;1.38;;;22.40;75.90;;;;;;5095695;28;20028;-62
2023/07/26 12:06:30;;;;;;;2.28;1.27;;;22.40;72.60;;;;;;5093013;28;20043;-62
2023/07/26 12:09:09;;;;;;;1.73;0.90;;;22.40;71.50;;;;;;5093188;28;20036;-62
2023/07/26 12:11:48;;;;;;;2.80;1.10;;;22.40;71.60;;;;;;5073325;28;20039;-62
2023/07/26 12:14:16;;;;;;;3.97;2.00;;;22.40;68.70;;;;;;5090213;28;20074;-62
2023/07/26 12:16:50;;;;;;;1.40;0.85;;;22.40;70.00;;;;;;5093405;28;20024;-62
2023/07/26 12:19:21;;;;;;;1.00;0.70;;;22.40;69.40;;;;;;5095591;28;20469;-62
2023/07/26 12:21:48;;;;;;;1.98;1.00;;;22.40;68.20;;;;;;5062389;28;20064;-62
2023/07/26 12:24:14;;;;;;;1.95;0.95;;;22.40;69.00;;;;;;5053100;28;20029;-62
2023/07/26 12:26:44;;;;;;;1.77;0.90;;;22.40;69.60;;;;;;5054786;28;20527;-62
2023/07/26 12:29:11;;;;;;;3.25;0.90;;;22.50;70.80;;;;;;5054411;28;20116;-62
2023/07/26 12:31:38;;;;;;;1.67;1.00;;;22.60;68.40;;;;;;5053046;28;20127;-62
2023/07/26 12:34:12;;;;;;;1.85;0.98;;;22.60;69.00;;;;;;5053967;28;20040;-62
2023/07/26 12:36:38;;;;;;;3.67;0.85;;;22.60;72.90;;;;;;5052980;28;20044;-62
2023/07/26 12:39:08;;;;;;;4.97;1.13;;;22.30;82.20;;;;;;5052683;28;20017;-62
2023/07/26 12:41:35;;;;;;;2.45;1.02;;;22.00;85.10;;;;;;5047913;28;20033;-62
2023/07/26 12:44:05;;;;;;;1.30;1.00;;;21.80;89.30;;;;;;5051695;28;20035;-62
2023/07/26 12:46:30;;;;;;;1.27;0.77;;;21.50;88.70;;;;;;5054983;28;20646;-62
2023/07/26 12:48:57;;;;;;;1.90;1.08;;;21.30;87.50;;;;;;5052629;28;20043;-62